Time;durP1;ratioP1;P1;durP2;ratioP2;P2;SDS_P1;SDS_P2;PMS_P1;PMS_P2;Temp;Humidity;BMP_temperature;BMP_pressure;BME280_temperature;BME280_humidity;BME280_pressure;Samples;Min_cycle;Max_cycle;Signal;HPM_P1;HPM_P2
2022/03/09 00:00:59;;;;;;;13.37;6.67;;;-2.30;34.50;;;;;;5034170;28;46442;-67
2022/03/09 00:03:24;;;;;;;16.20;6.80;;;-2.40;34.40;;;;;;5034628;28;46358;-67
2022/03/09 00:05:50;;;;;;;11.90;6.37;;;-2.50;34.50;;;;;;5027536;28;46631;-66
2022/03/09 00:08:15;;;;;;;13.20;6.50;;;-2.50;34.40;;;;;;5028573;28;46422;-64
2022/03/09 00:10:41;;;;;;;13.07;6.30;;;-2.60;34.40;;;;;;5035111;28;46379;-67
2022/03/09 00:13:06;;;;;;;12.97;7.13;;;-2.60;34.70;;;;;;5031978;28;46500;-67
2022/03/09 00:15:32;;;;;;;14.90;6.70;;;-2.60;35.00;;;;;;5028304;28;45855;-65
2022/03/09 00:17:58;;;;;;;14.93;6.87;;;-2.60;34.90;;;;;;5032044;28;47125;-66
2022/03/09 00:20:23;;;;;;;11.20;6.23;;;-2.50;35.00;;;;;;5032929;28;46493;-69
2022/03/09 00:22:49;;;;;;;11.90;6.70;;;-2.40;34.90;;;;;;5029397;28;46376;-69
2022/03/09 00:25:14;;;;;;;18.80;7.40;;;-2.40;34.60;;;;;;5029668;28;46272;-65
2022/03/09 00:27:40;;;;;;;11.37;7.10;;;-2.40;34.60;;;;;;5029665;28;47033;-67
2022/03/09 00:30:06;;;;;;;15.70;7.47;;;-2.40;34.60;;;;;;5030239;28;46428;-67
2022/03/09 00:32:32;;;;;;;11.98;6.65;;;-2.40;34.60;;;;;;5027256;28;46327;-68
2022/03/09 00:34:58;;;;;;;13.97;6.10;;;-2.40;34.80;;;;;;5029711;28;46347;-67
2022/03/09 00:37:24;;;;;;;14.63;6.10;;;-2.40;34.90;;;;;;5031319;28;46401;-67
2022/03/09 00:39:49;;;;;;;11.50;5.60;;;-2.20;35.00;;;;;;5026299;28;45785;-66
2022/03/09 00:42:15;;;;;;;17.43;5.73;;;-2.20;35.10;;;;;;5029905;28;46427;-67
2022/03/09 00:44:40;;;;;;;10.67;6.30;;;-2.10;35.00;;;;;;5034894;28;46414;-67
2022/03/09 00:47:06;;;;;;;11.87;6.10;;;-2.10;34.80;;;;;;5033706;28;48034;-66
2022/03/09 00:49:32;;;;;;;13.87;5.80;;;-2.10;34.80;;;;;;5033913;28;46419;-66
2022/03/09 00:51:57;;;;;;;12.57;7.37;;;-2.30;34.90;;;;;;5030329;28;46468;-66
2022/03/09 00:54:23;;;;;;;12.00;6.70;;;-2.50;35.20;;;;;;5013663;28;46412;-66
2022/03/09 00:56:48;;;;;;;14.53;6.53;;;-2.70;35.70;;;;;;5027606;28;46369;-66
2022/03/09 00:59:14;;;;;;;12.23;6.63;;;-2.90;35.70;;;;;;5034115;28;46436;-69
2022/03/09 01:01:39;;;;;;;16.30;6.30;;;-3.00;35.90;;;;;;5032465;28;46367;-66
2022/03/09 01:04:05;;;;;;;12.70;6.93;;;-3.00;36.00;;;;;;5033161;28;46450;-67
2022/03/09 01:06:31;;;;;;;17.67;7.20;;;-3.10;35.80;;;;;;5030961;28;46389;-66
2022/03/09 01:08:57;;;;;;;9.27;6.27;;;-3.10;35.80;;;;;;5032540;28;46455;-66
2022/03/09 01:11:23;;;;;;;11.43;6.47;;;-3.10;35.70;;;;;;5035607;28;46406;-66
2022/03/09 01:13:49;;;;;;;12.70;6.57;;;-3.10;35.90;;;;;;5030704;28;46746;-68
2022/03/09 01:16:15;;;;;;;11.63;6.27;;;-3.10;35.80;;;;;;5032955;28;46407;-67
2022/03/09 01:18:40;;;;;;;10.33;6.43;;;-3.10;35.80;;;;;;5037157;28;46415;-65
2022/03/09 01:21:07;;;;;;;11.47;6.70;;;-3.10;35.90;;;;;;5035254;28;45949;-66
2022/03/09 01:23:32;;;;;;;13.77;6.78;;;-3.10;35.90;;;;;;5035803;28;46526;-68
2022/03/09 01:25:58;;;;;;;11.57;6.07;;;-3.20;36.00;;;;;;5030847;28;46183;-67
2022/03/09 01:28:24;;;;;;;14.80;6.25;;;-3.30;36.10;;;;;;5032893;28;46398;-69
2022/03/09 01:30:50;;;;;;;13.87;6.10;;;-3.30;36.30;;;;;;5032609;28;46483;-67
2022/03/09 01:33:15;;;;;;;14.40;6.87;;;-3.30;36.20;;;;;;5034408;28;46503;-64
2022/03/09 01:35:42;;;;;;;12.05;7.13;;;-3.40;36.20;;;;;;5030045;28;47288;-64
2022/03/09 01:38:08;;;;;;;11.63;6.90;;;-3.40;36.10;;;;;;5033000;28;46437;-67
2022/03/09 01:40:33;;;;;;;11.37;6.13;;;-3.40;36.20;;;;;;5033353;28;46362;-66
2022/03/09 01:42:59;;;;;;;13.23;6.40;;;-3.40;36.30;;;;;;5032072;28;46457;-66
2022/03/09 01:45:25;;;;;;;13.60;6.30;;;-3.50;36.20;;;;;;5028602;28;46359;-65
2022/03/09 01:47:51;;;;;;;11.85;7.25;;;-3.60;36.40;;;;;;5026304;28;46398;-65
2022/03/09 01:50:16;;;;;;;13.80;6.47;;;-3.80;36.50;;;;;;5032394;28;46541;-66
2022/03/09 01:52:43;;;;;;;15.63;6.53;;;-3.80;36.80;;;;;;5041026;28;46424;-67
2022/03/09 01:55:10;;;;;;;13.43;6.90;;;-3.90;36.70;;;;;;5035192;28;46336;-66
2022/03/09 01:57:36;;;;;;;13.45;6.93;;;-3.90;36.60;;;;;;5030089;28;46540;-69
2022/03/09 02:00:04;;;;;;;13.75;6.63;;;-3.80;36.70;;;;;;5035884;28;46265;-67
2022/03/09 02:02:29;;;;;;;12.70;6.70;;;-3.80;36.80;;;;;;5032273;28;46401;-66
2022/03/09 02:04:55;;;;;;;14.47;7.50;;;-3.80;36.70;;;;;;5032809;28;46474;-65
2022/03/09 02:09:41;;;;;;;14.10;7.53;;;-3.80;36.60;;;;;;5029038;28;46401;-66
2022/03/09 02:10:10;;;;;;;18.38;8.20;;;-3.70;36.60;;;;;;5029055;28;46379;-66
2022/03/09 02:12:37;;;;;;;11.13;6.53;;;-3.80;36.60;;;;;;5030406;28;46525;-67
2022/03/09 02:15:03;;;;;;;12.82;6.95;;;-3.80;36.70;;;;;;5027244;28;46239;-66
2022/03/09 02:17:29;;;;;;;12.45;6.78;;;-3.80;36.80;;;;;;5026680;28;46040;-66
2022/03/09 02:19:58;;;;;;;11.15;6.28;;;-3.80;36.90;;;;;;5036756;28;46347;-66
2022/03/09 02:22:33;;;;;;;12.73;6.05;;;-3.90;37.00;;;;;;5033624;28;46487;-67
2022/03/09 02:25:00;;;;;;;14.60;7.05;;;-4.00;37.30;;;;;;5035436;28;46311;-66
2022/03/09 02:27:26;;;;;;;20.50;7.82;;;-4.10;37.20;;;;;;5034647;28;46336;-67
2022/03/09 02:29:53;;;;;;;16.00;7.32;;;-4.10;37.20;;;;;;5030810;28;46291;-67
2022/03/09 02:32:19;;;;;;;20.65;7.13;;;-4.00;37.40;;;;;;5031453;28;46589;-67
2022/03/09 02:34:45;;;;;;;17.42;7.15;;;-4.00;37.20;;;;;;5032785;28;46385;-67
2022/03/09 02:37:11;;;;;;;14.47;7.67;;;-4.00;37.10;;;;;;5034688;28;46519;-67
2022/03/09 02:39:37;;;;;;;20.67;8.40;;;-3.90;37.20;;;;;;5033330;28;46431;-67
2022/03/09 02:42:04;;;;;;;14.02;6.90;;;-4.00;37.10;;;;;;5030208;28;46605;-66
2022/03/09 02:44:30;;;;;;;18.40;7.13;;;-4.00;37.20;;;;;;5034006;28;46347;-67
2022/03/09 02:46:57;;;;;;;18.33;7.85;;;-3.90;37.30;;;;;;5031906;28;46307;-64
2022/03/09 02:49:22;;;;;;;15.68;7.18;;;-4.00;37.30;;;;;;5033593;28;46392;-64
2022/03/09 02:51:48;;;;;;;11.73;6.50;;;-4.00;37.40;;;;;;5028515;28;46346;-66
2022/03/09 02:54:14;;;;;;;12.90;5.93;;;-4.10;37.40;;;;;;5029980;28;47036;-67
2022/03/09 02:56:40;;;;;;;11.73;5.77;;;-4.20;37.80;;;;;;5032252;28;46545;-64
2022/03/09 02:59:05;;;;;;;9.43;5.23;;;-4.30;38.00;;;;;;5029904;28;46486;-65
2022/03/09 03:01:31;;;;;;;12.13;6.10;;;-4.40;38.20;;;;;;5028345;28;46466;-67
2022/03/09 03:03:56;;;;;;;10.87;5.67;;;-4.40;38.10;;;;;;5029299;28;46460;-66
2022/03/09 03:06:23;;;;;;;17.70;6.20;;;-4.40;38.20;;;;;;5026471;28;46418;-68
2022/03/09 03:08:49;;;;;;;11.13;5.57;;;-4.50;38.10;;;;;;5028423;28;46446;-67
2022/03/09 03:11:15;;;;;;;11.77;5.10;;;-4.50;38.00;;;;;;5029387;28;45886;-67
2022/03/09 03:13:41;;;;;;;10.77;5.50;;;-4.50;38.00;;;;;;5030262;28;46439;-66
2022/03/09 03:16:08;;;;;;;10.02;5.88;;;-4.50;38.10;;;;;;5028510;28;46439;-66
2022/03/09 03:18:35;;;;;;;9.60;5.30;;;-4.50;38.10;;;;;;5026533;28;45809;-68
2022/03/09 03:21:02;;;;;;;12.60;6.50;;;-4.50;38.10;;;;;;5029550;28;46440;-67
2022/03/09 03:23:30;;;;;;;11.93;5.20;;;-4.50;38.20;;;;;;5031271;28;46097;-66
2022/03/09 03:25:56;;;;;;;9.60;5.13;;;-4.60;38.00;;;;;;5031094;28;46351;-66
2022/03/09 03:28:23;;;;;;;9.50;5.20;;;-4.70;38.20;;;;;;5028241;28;46436;-69
2022/03/09 03:30:49;;;;;;;8.95;4.50;;;-4.70;38.50;;;;;;5029838;28;46398;-69
2022/03/09 03:33:15;;;;;;;9.20;4.70;;;-4.80;38.60;;;;;;5028324;28;46137;-66
2022/03/09 03:35:42;;;;;;;8.98;4.47;;;-4.80;38.70;;;;;;5025175;28;46544;-66
2022/03/09 03:38:08;;;;;;;6.72;4.40;;;-4.90;38.60;;;;;;5028824;28;46652;-65
2022/03/09 03:40:34;;;;;;;8.43;4.90;;;-4.80;38.70;;;;;;5030542;28;46531;-68
2022/03/09 03:43:00;;;;;;;9.40;5.47;;;-4.80;38.60;;;;;;5033850;28;46549;-66
2022/03/09 03:45:26;;;;;;;8.50;5.10;;;-4.80;38.50;;;;;;5033223;28;46602;-67
2022/03/09 03:47:51;;;;;;;11.50;5.53;;;-4.80;38.50;;;;;;5033744;28;46402;-68
2022/03/09 03:50:18;;;;;;;8.00;4.90;;;-4.70;38.50;;;;;;5029634;28;46373;-66
2022/03/09 03:52:44;;;;;;;9.73;5.53;;;-4.70;38.60;;;;;;5028684;28;46627;-67
2022/03/09 03:55:09;;;;;;;8.80;4.60;;;-4.70;38.50;;;;;;5028951;28;46374;-65
2022/03/09 03:57:35;;;;;;;8.17;5.17;;;-4.80;38.50;;;;;;5033119;28;46468;-64
2022/03/09 04:00:01;;;;;;;12.70;6.63;;;-4.80;38.80;;;;;;5027072;28;46609;-68
2022/03/09 04:02:27;;;;;;;11.70;6.18;;;-4.70;38.80;;;;;;5029372;28;46406;-65
2022/03/09 04:04:52;;;;;;;9.27;5.80;;;-4.70;38.70;;;;;;5032886;28;46648;-66
2022/03/09 04:07:19;;;;;;;15.60;6.30;;;-4.70;38.80;;;;;;5024655;28;46436;-65
2022/03/09 04:09:45;;;;;;;9.77;6.07;;;-4.70;39.00;;;;;;5029468;28;46292;-66
2022/03/09 04:12:11;;;;;;;12.83;5.87;;;-4.70;39.20;;;;;;5034477;28;47099;-66
2022/03/09 04:14:36;;;;;;;8.50;5.43;;;-4.70;39.30;;;;;;5033098;28;45763;-66
2022/03/09 04:17:02;;;;;;;9.37;4.97;;;-4.60;39.30;;;;;;5032627;28;46322;-70
2022/03/09 04:19:28;;;;;;;11.10;5.90;;;-4.60;39.10;;;;;;5032840;28;46452;-65
2022/03/09 04:21:54;;;;;;;12.10;6.53;;;-4.50;39.20;;;;;;5029627;28;47270;-68
2022/03/09 04:24:19;;;;;;;9.57;5.67;;;-4.60;39.10;;;;;;5030604;28;46420;-66
2022/03/09 04:26:45;;;;;;;9.27;5.63;;;-4.60;39.30;;;;;;5028936;28;46492;-66
2022/03/09 04:29:10;;;;;;;9.43;5.00;;;-4.70;39.50;;;;;;5031894;28;46348;-67
2022/03/09 04:31:37;;;;;;;12.80;5.93;;;-4.80;39.90;;;;;;5025031;28;46340;-67
2022/03/09 04:34:03;;;;;;;10.98;6.18;;;-4.80;40.00;;;;;;5023606;28;46402;-67
2022/03/09 04:36:28;;;;;;;9.60;5.70;;;-4.90;39.80;;;;;;5022608;28;46366;-65
2022/03/09 04:38:55;;;;;;;17.37;6.43;;;-4.90;39.90;;;;;;5033983;28;46322;-67
2022/03/09 04:41:21;;;;;;;10.95;6.25;;;-5.00;39.70;;;;;;5033328;28;46081;-65
2022/03/09 04:43:46;;;;;;;7.97;5.05;;;-5.00;39.80;;;;;;5032767;28;46376;-67
2022/03/09 04:46:12;;;;;;;12.70;6.30;;;-5.00;39.80;;;;;;5032658;28;46382;-67
2022/03/09 04:48:38;;;;;;;21.93;5.97;;;-5.00;39.70;;;;;;5032684;28;46627;-66
2022/03/09 04:51:04;;;;;;;16.00;4.93;;;-5.00;39.80;;;;;;5032858;28;47970;-65
2022/03/09 04:53:30;;;;;;;10.88;5.70;;;-5.00;39.80;;;;;;5027672;28;46741;-68
2022/03/09 04:55:56;;;;;;;10.63;5.00;;;-5.00;39.70;;;;;;5030301;28;46335;-65
2022/03/09 04:58:25;;;;;;;11.10;5.73;;;-5.00;39.80;;;;;;5030476;28;46416;-66
2022/03/09 05:00:51;;;;;;;9.57;5.07;;;-5.00;39.70;;;;;;5029709;28;47207;-67
2022/03/09 05:03:17;;;;;;;7.20;4.20;;;-5.10;39.70;;;;;;5026102;28;46513;-68
2022/03/09 05:05:42;;;;;;;7.63;4.30;;;-5.00;39.70;;;;;;5027827;28;46333;-68
2022/03/09 05:08:09;;;;;;;9.10;5.43;;;-5.20;39.60;;;;;;5028322;28;46475;-65
2022/03/09 05:10:35;;;;;;;9.50;5.25;;;-5.30;39.50;;;;;;5030828;28;46221;-65
2022/03/09 05:13:01;;;;;;;10.15;4.90;;;-5.40;39.40;;;;;;5031656;28;46496;-66
2022/03/09 05:15:27;;;;;;;10.00;5.22;;;-5.40;39.40;;;;;;5027923;28;46437;-67
2022/03/09 05:17:52;;;;;;;19.20;9.60;;;-5.40;39.40;;;;;;5027888;28;46331;-65
2022/03/09 05:20:20;;;;;;;10.80;5.43;;;-5.40;39.40;;;;;;5035152;28;46331;-67
2022/03/09 05:22:46;;;;;;;9.68;6.18;;;-5.50;39.40;;;;;;5031226;28;45949;-68
2022/03/09 05:25:12;;;;;;;12.35;5.43;;;-5.50;39.40;;;;;;5030879;28;46346;-68
2022/03/09 05:27:38;;;;;;;14.30;7.27;;;-5.50;39.60;;;;;;5031548;28;46489;-65
2022/03/09 05:30:05;;;;;;;14.18;6.50;;;-5.40;39.40;;;;;;5033221;28;46351;-67
2022/03/09 05:32:31;;;;;;;9.90;5.35;;;-5.40;39.40;;;;;;5029701;28;46662;-67
2022/03/09 05:34:56;;;;;;;12.17;6.20;;;-5.30;39.50;;;;;;5030553;28;46363;-66
2022/03/09 05:37:22;;;;;;;24.23;10.43;;;-5.30;39.40;;;;;;5028525;28;45917;-67
2022/03/09 05:39:48;;;;;;;31.60;14.27;;;-5.20;39.60;;;;;;5028724;28;46398;-67
2022/03/09 05:42:14;;;;;;;39.88;14.77;;;-5.20;39.50;;;;;;5026556;28;46460;-67
2022/03/09 05:44:40;;;;;;;31.47;11.80;;;-5.20;40.80;;;;;;5028226;28;46283;-64
2022/03/09 05:47:06;;;;;;;25.25;10.88;;;-5.20;40.10;;;;;;5036263;28;46409;-66
2022/03/09 05:49:32;;;;;;;20.70;8.20;;;-5.10;39.90;;;;;;5033152;28;46402;-67
2022/03/09 05:51:58;;;;;;;16.80;8.20;;;-5.10;39.90;;;;;;5034267;28;46475;-68
2022/03/09 05:54:23;;;;;;;22.63;8.70;;;-5.10;39.70;;;;;;5036050;28;46374;-66
2022/03/09 05:56:49;;;;;;;21.23;9.50;;;-5.00;39.80;;;;;;5034985;28;45943;-64
2022/03/09 05:59:15;;;;;;;17.47;8.27;;;-4.90;39.80;;;;;;5033514;28;46337;-66
2022/03/09 06:01:40;;;;;;;15.83;7.47;;;-4.90;39.80;;;;;;5030913;28;46560;-65
2022/03/09 06:04:06;;;;;;;14.13;7.03;;;-4.80;40.00;;;;;;5033048;28;46319;-66
2022/03/09 06:06:32;;;;;;;21.13;6.47;;;-4.70;40.10;;;;;;5030037;28;46335;-66
2022/03/09 06:08:58;;;;;;;14.10;8.07;;;-4.60;40.10;;;;;;5031982;28;46397;-67
2022/03/09 06:11:24;;;;;;;22.43;8.97;;;-4.60;40.10;;;;;;5032618;28;46417;-69
2022/03/09 06:13:50;;;;;;;25.55;9.15;;;-4.50;40.20;;;;;;5038333;28;46331;-67
2022/03/09 06:16:16;;;;;;;22.73;10.20;;;-4.40;40.30;;;;;;5030576;28;46477;-67
2022/03/09 06:18:42;;;;;;;30.60;10.50;;;-4.40;40.30;;;;;;5036822;28;46516;-66
2022/03/09 06:21:07;;;;;;;17.20;8.53;;;-4.30;40.40;;;;;;5036824;28;45792;-66
2022/03/09 06:23:33;;;;;;;16.63;7.27;;;-4.20;40.50;;;;;;5030965;28;46428;-68
2022/03/09 06:25:59;;;;;;;19.27;7.90;;;-4.20;40.40;;;;;;5029034;28;46366;-67
2022/03/09 06:28:25;;;;;;;14.13;7.05;;;-4.10;40.50;;;;;;5034781;28;46644;-66
2022/03/09 06:30:51;;;;;;;19.53;6.47;;;-4.00;40.30;;;;;;5040038;28;46518;-66
2022/03/09 06:33:17;;;;;;;16.42;7.88;;;-3.70;40.00;;;;;;5035692;28;46433;-66
2022/03/09 06:35:43;;;;;;;14.05;8.70;;;-3.50;40.30;;;;;;5029968;28;46628;-70
2022/03/09 06:38:09;;;;;;;27.70;8.40;;;-3.30;41.20;;;;;;5031509;28;46599;-66
2022/03/09 06:40:35;;;;;;;16.98;7.78;;;-3.20;41.60;;;;;;5029598;28;46739;-68
2022/03/09 06:43:01;;;;;;;15.50;6.70;;;-3.00;41.50;;;;;;5035262;28;46411;-67
2022/03/09 06:45:27;;;;;;;14.10;6.55;;;-2.80;41.60;;;;;;5030485;28;46528;-65
2022/03/09 06:47:53;;;;;;;17.90;8.18;;;-2.60;41.80;;;;;;5030463;28;46601;-65
2022/03/09 06:50:18;;;;;;;14.97;7.80;;;-2.40;41.50;;;;;;5028564;28;46441;-67
2022/03/09 06:52:45;;;;;;;18.13;7.00;;;-2.20;41.20;;;;;;5027708;28;45847;-66
2022/03/09 06:55:12;;;;;;;13.95;6.43;;;-2.00;40.90;;;;;;5025572;28;46346;-67
2022/03/09 06:57:38;;;;;;;20.20;7.70;;;-1.80;41.00;;;;;;5029764;28;47848;-66
2022/03/09 07:00:11;;;;;;;10.93;7.00;;;-1.60;40.70;;;;;;5041657;28;46617;-65
2022/03/09 07:02:37;;;;;;;20.92;15.00;;;-1.40;40.50;;;;;;5029648;28;46474;-69
2022/03/09 07:05:03;;;;;;;16.27;7.80;;;-1.20;40.40;;;;;;5032177;28;46492;-69
2022/03/09 07:07:30;;;;;;;12.52;6.90;;;-1.00;40.40;;;;;;5032645;28;46348;-67
2022/03/09 07:09:55;;;;;;;17.15;7.80;;;-1.00;41.80;;;;;;5030910;28;46629;-67
2022/03/09 07:12:21;;;;;;;13.13;7.10;;;-0.80;40.70;;;;;;5027304;28;46403;-66
2022/03/09 07:14:46;;;;;;;13.13;7.00;;;-0.60;40.70;;;;;;5030435;28;46012;-66
2022/03/09 07:17:12;;;;;;;12.00;7.20;;;-0.50;40.70;;;;;;5026039;28;46858;-66
2022/03/09 07:19:38;;;;;;;12.10;6.40;;;-0.30;40.70;;;;;;5025557;28;46486;-67
2022/03/09 07:22:04;;;;;;;17.83;8.43;;;-0.10;40.90;;;;;;5029346;28;46492;-70
2022/03/09 07:24:29;;;;;;;15.77;8.07;;;0.10;40.90;;;;;;5034154;28;45825;-67
2022/03/09 07:26:56;;;;;;;16.63;9.20;;;0.20;40.80;;;;;;5033075;28;47206;-68
2022/03/09 07:29:22;;;;;;;12.07;7.28;;;0.40;40.90;;;;;;5032235;28;46399;-64
2022/03/09 07:31:48;;;;;;;13.90;7.60;;;0.60;40.70;;;;;;5032964;28;45934;-67
2022/03/09 07:34:13;;;;;;;12.57;7.30;;;0.90;40.60;;;;;;5030629;28;45829;-67
2022/03/09 07:36:39;;;;;;;14.00;7.87;;;1.00;40.40;;;;;;5031226;28;46500;-68
2022/03/09 07:39:05;;;;;;;12.37;6.50;;;1.20;40.40;;;;;;5028767;28;46429;-67
2022/03/09 07:41:30;;;;;;;15.70;7.50;;;1.40;40.50;;;;;;5028329;28;46394;-64
2022/03/09 07:43:56;;;;;;;11.03;6.93;;;1.60;40.30;;;;;;5027050;28;46013;-67
2022/03/09 07:46:21;;;;;;;13.47;5.87;;;1.80;40.30;;;;;;5032367;28;46902;-69
2022/03/09 07:48:47;;;;;;;21.83;7.50;;;1.90;40.40;;;;;;5027935;28;45747;-65
2022/03/09 07:51:13;;;;;;;14.63;7.50;;;2.00;40.30;;;;;;5029368;28;46308;-67
2022/03/09 07:53:42;;;;;;;14.57;7.60;;;2.00;40.40;;;;;;5031446;28;46767;-68
2022/03/09 07:56:12;;;;;;;16.98;7.80;;;2.30;40.40;;;;;;5031302;28;46622;-68
2022/03/09 07:58:38;;;;;;;14.88;8.05;;;2.40;40.20;;;;;;5038357;28;46867;-68
2022/03/09 08:01:05;;;;;;;17.35;7.47;;;2.60;40.10;;;;;;5031330;28;45827;-68
2022/03/09 08:03:33;;;;;;;17.38;7.25;;;2.80;40.00;;;;;;5031051;28;46515;-66
2022/03/09 08:05:59;;;;;;;15.43;7.70;;;3.00;40.00;;;;;;5038246;28;46499;-68
2022/03/09 08:08:26;;;;;;;14.27;7.65;;;3.10;39.80;;;;;;5037162;28;46511;-66
2022/03/09 08:10:51;;;;;;;13.50;8.63;;;3.20;39.70;;;;;;5024680;28;46338;-65
2022/03/09 08:13:17;;;;;;;15.33;7.93;;;3.30;39.40;;;;;;5033018;28;46404;-66
2022/03/09 08:15:43;;;;;;;17.30;8.80;;;3.50;39.40;;;;;;5032845;28;46303;-68
2022/03/09 08:18:09;;;;;;;15.20;8.90;;;3.60;39.10;;;;;;5031888;28;46369;-67
2022/03/09 08:20:35;;;;;;;13.02;8.13;;;3.70;38.70;;;;;;5031226;28;46500;-65
2022/03/09 08:23:01;;;;;;;15.93;8.10;;;3.80;38.50;;;;;;5028238;28;46363;-66
2022/03/09 08:25:27;;;;;;;26.02;8.48;;;3.90;38.30;;;;;;5028904;28;46952;-66
2022/03/09 08:27:52;;;;;;;19.47;8.60;;;3.90;38.00;;;;;;5025404;28;46517;-67
2022/03/09 08:30:18;;;;;;;14.70;8.77;;;4.00;37.80;;;;;;5028404;28;46371;-68
2022/03/09 08:32:44;;;;;;;16.03;8.20;;;4.10;37.80;;;;;;5029367;28;46583;-66
2022/03/09 08:35:09;;;;;;;15.30;8.80;;;4.30;37.60;;;;;;5028529;28;47940;-66
2022/03/09 08:37:35;;;;;;;12.80;8.23;;;4.30;37.50;;;;;;5032804;28;45908;-66
2022/03/09 08:40:01;;;;;;;20.73;9.57;;;4.50;37.30;;;;;;5028704;28;46338;-66
2022/03/09 08:42:26;;;;;;;14.53;8.10;;;4.70;37.20;;;;;;5030668;28;46412;-65
2022/03/09 08:44:52;;;;;;;16.03;8.70;;;4.70;36.80;;;;;;5031962;28;46399;-66
2022/03/09 08:47:18;;;;;;;16.20;9.33;;;4.70;36.60;;;;;;5029048;28;46394;-65
2022/03/09 08:49:43;;;;;;;18.20;9.20;;;4.90;36.40;;;;;;5030567;28;45800;-66
2022/03/09 08:52:11;;;;;;;23.37;8.50;;;5.00;36.40;;;;;;5027269;28;46597;-66
2022/03/09 08:54:38;;;;;;;14.43;7.80;;;5.00;36.10;;;;;;5030215;28;47072;-66
2022/03/09 08:57:04;;;;;;;15.13;8.47;;;5.00;36.30;;;;;;5034099;28;46454;-66
2022/03/09 08:59:30;;;;;;;14.05;8.38;;;5.00;35.60;;;;;;5028859;28;46456;-67
2022/03/09 09:01:55;;;;;;;16.27;8.87;;;5.10;35.20;;;;;;5024976;28;46703;-66
2022/03/09 09:04:22;;;;;;;16.30;8.70;;;5.10;35.30;;;;;;5031816;28;46509;-65
2022/03/09 09:06:48;;;;;;;16.73;9.27;;;5.30;35.30;;;;;;5032969;28;46291;-65
2022/03/09 09:09:17;;;;;;;19.70;8.70;;;5.30;35.30;;;;;;5029795;28;46775;-64
2022/03/09 09:11:43;;;;;;;15.23;8.00;;;5.50;35.10;;;;;;5026746;28;46490;-66
2022/03/09 09:14:09;;;;;;;15.30;8.40;;;5.70;34.40;;;;;;5032882;28;47084;-67
2022/03/09 09:16:35;;;;;;;14.97;9.00;;;5.80;34.10;;;;;;5024893;28;46365;-66
2022/03/09 09:19:01;;;;;;;16.83;8.93;;;5.80;34.20;;;;;;5031568;28;46397;-66
2022/03/09 09:21:26;;;;;;;15.23;9.40;;;6.00;33.70;;;;;;5035692;28;45853;-67
2022/03/09 09:23:52;;;;;;;13.60;8.23;;;6.10;32.80;;;;;;5034398;28;46355;-65
2022/03/09 09:26:18;;;;;;;15.97;8.93;;;6.30;32.80;;;;;;5035061;28;46510;-65
2022/03/09 09:28:44;;;;;;;16.00;8.73;;;6.30;32.60;;;;;;5037624;28;45778;-66
2022/03/09 09:31:10;;;;;;;14.50;8.90;;;6.40;32.40;;;;;;5032717;28;46427;-65
2022/03/09 09:33:35;;;;;;;20.23;8.33;;;6.60;32.20;;;;;;5030886;28;46711;-67
2022/03/09 09:36:02;;;;;;;15.70;8.73;;;6.50;31.50;;;;;;5032291;28;46826;-64
2022/03/09 09:38:27;;;;;;;15.53;8.73;;;6.50;31.90;;;;;;5026408;28;46482;-63
2022/03/09 09:40:55;;;;;;;23.23;10.60;;;6.50;31.50;;;;;;5025654;28;46390;-64
2022/03/09 09:43:22;;;;;;;15.50;8.70;;;6.60;31.60;;;;;;5024123;28;46358;-65
2022/03/09 09:45:47;;;;;;;15.77;8.30;;;6.60;30.80;;;;;;5033580;28;46404;-65
2022/03/09 09:48:14;;;;;;;18.00;8.00;;;6.60;30.20;;;;;;5035637;28;46417;-64
2022/03/09 09:50:42;;;;;;;16.90;8.77;;;6.80;30.50;;;;;;5033658;28;46416;-65
2022/03/09 09:53:13;;;;;;;16.70;9.80;;;6.80;30.30;;;;;;5032895;28;46466;-65
2022/03/09 09:55:40;;;;;;;17.10;9.40;;;7.00;30.00;;;;;;5034487;28;46359;-64
2022/03/09 09:58:08;;;;;;;14.60;8.93;;;7.10;30.80;;;;;;5033588;28;46201;-64
2022/03/09 10:00:34;;;;;;;18.63;10.33;;;7.20;29.90;;;;;;5033638;28;46724;-65
2022/03/09 10:03:01;;;;;;;18.37;9.43;;;7.20;29.50;;;;;;5026829;28;46184;-65
2022/03/09 10:05:27;;;;;;;17.00;9.10;;;7.20;29.40;;;;;;5030832;28;46393;-64
2022/03/09 10:08:05;;;;;;;15.40;7.80;;;7.20;28.90;;;;;;5031116;28;46441;-65
2022/03/09 10:10:43;;;;;;;18.60;9.50;;;7.30;29.00;;;;;;5028574;28;45901;-65
2022/03/09 10:13:17;;;;;;;16.23;8.70;;;7.40;28.30;;;;;;5031483;28;46189;-65
2022/03/09 10:15:48;;;;;;;19.10;8.80;;;7.60;28.30;;;;;;5031665;28;46434;-65
2022/03/09 10:18:14;;;;;;;15.73;8.70;;;7.60;28.20;;;;;;5032330;28;45783;-64
2022/03/09 10:20:40;;;;;;;17.20;9.27;;;7.70;28.40;;;;;;5032928;28;46495;-65
2022/03/09 10:23:06;;;;;;;16.00;8.77;;;7.80;27.50;;;;;;5035713;28;46430;-66
2022/03/09 10:25:31;;;;;;;15.17;9.13;;;8.00;27.60;;;;;;5029992;28;46367;-65
2022/03/09 10:27:59;;;;;;;14.87;9.20;;;8.00;27.80;;;;;;5029203;28;46714;-63
2022/03/09 10:30:30;;;;;;;16.20;8.87;;;8.10;27.60;;;;;;5034605;28;46363;-65
2022/03/09 10:32:58;;;;;;;16.20;8.87;;;8.10;27.20;;;;;;5035705;28;46401;-64
2022/03/09 10:35:30;;;;;;;16.40;8.50;;;8.10;27.30;;;;;;5030060;28;46363;-66
2022/03/09 10:37:57;;;;;;;16.50;8.87;;;8.10;27.10;;;;;;5031691;28;46381;-66
2022/03/09 10:40:24;;;;;;;18.50;8.63;;;8.20;26.90;;;;;;5033702;28;46795;-64
2022/03/09 10:42:51;;;;;;;16.10;8.80;;;8.20;26.60;;;;;;5031494;28;47070;-66
2022/03/09 10:45:17;;;;;;;19.60;9.40;;;8.20;26.20;;;;;;5032913;28;45910;-65
2022/03/09 10:47:48;;;;;;;15.93;8.80;;;8.20;25.90;;;;;;5029569;28;46439;-65
2022/03/09 10:50:21;;;;;;;13.27;8.77;;;8.30;25.70;;;;;;5029576;28;46377;-65
2022/03/09 10:52:53;;;;;;;16.13;8.67;;;8.30;25.70;;;;;;5034661;28;46086;-65
2022/03/09 10:55:23;;;;;;;18.60;8.97;;;8.40;25.80;;;;;;5034248;28;46535;-65
2022/03/09 10:57:51;;;;;;;20.03;10.07;;;8.50;25.90;;;;;;5033659;28;46522;-65
2022/03/09 11:00:40;;;;;;;24.60;9.10;;;8.60;25.30;;;;;;5035058;28;46555;-66
2022/03/09 11:03:14;;;;;;;18.23;9.23;;;8.80;25.10;;;;;;5032440;28;46454;-66
2022/03/09 11:05:48;;;;;;;17.07;10.10;;;8.90;25.30;;;;;;5032219;28;46407;-66
2022/03/09 11:08:15;;;;;;;15.03;9.30;;;8.90;24.40;;;;;;5031016;28;46374;-65
2022/03/09 11:10:44;;;;;;;17.40;10.47;;;8.80;24.60;;;;;;5031932;28;46688;-66
2022/03/09 11:13:10;;;;;;;15.63;9.90;;;8.90;25.60;;;;;;5027523;28;47036;-65
2022/03/09 11:15:36;;;;;;;14.00;8.33;;;9.00;24.60;;;;;;5028173;28;46391;-67
2022/03/09 11:18:02;;;;;;;26.50;9.43;;;9.20;24.70;;;;;;5027906;28;45839;-65
2022/03/09 11:20:27;;;;;;;16.20;9.37;;;9.20;23.60;;;;;;5034295;28;46767;-64
2022/03/09 11:22:53;;;;;;;19.13;10.33;;;9.20;23.70;;;;;;5034715;28;46561;-64
2022/03/09 11:25:23;;;;;;;21.67;9.20;;;9.20;23.50;;;;;;5029902;28;46690;-65
2022/03/09 11:27:51;;;;;;;14.07;8.93;;;9.20;23.60;;;;;;5032830;28;46405;-64
2022/03/09 11:30:24;;;;;;;15.50;9.30;;;9.30;23.70;;;;;;5035195;28;46361;-63
2022/03/09 11:32:50;;;;;;;13.20;8.57;;;9.40;23.50;;;;;;5028821;28;46555;-64
2022/03/09 11:35:39;;;;;;;13.80;8.30;;;9.40;23.10;;;;;;5027905;28;46656;-65
2022/03/09 11:38:33;;;;;;;14.00;8.30;;;9.40;23.00;;;;;;5030208;28;46381;-65
2022/03/09 11:41:18;;;;;;;21.43;8.77;;;9.40;23.00;;;;;;5033990;28;46420;-64
2022/03/09 11:43:44;;;;;;;17.40;9.40;;;9.50;22.30;;;;;;5034758;28;46631;-65
2022/03/09 11:46:10;;;;;;;16.30;9.60;;;9.60;22.80;;;;;;5028163;28;46365;-65
2022/03/09 11:48:53;;;;;;;17.40;9.03;;;9.50;22.70;;;;;;5029476;28;45808;-65
2022/03/09 11:51:26;;;;;;;16.57;9.30;;;9.40;21.10;;;;;;5031853;28;46443;-66
2022/03/09 11:53:59;;;;;;;17.70;9.77;;;9.40;21.60;;;;;;5033346;28;47225;-65
2022/03/09 11:56:38;;;;;;;20.20;10.40;;;9.50;21.90;;;;;;5030970;28;46465;-65
2022/03/09 11:59:37;;;;;;;15.80;9.20;;;9.50;21.40;;;;;;5028707;28;45871;-65
2022/03/09 12:02:13;;;;;;;14.77;9.60;;;9.50;21.20;;;;;;5009810;28;46502;-65
2022/03/09 12:04:53;;;;;;;18.17;9.93;;;9.50;21.10;;;;;;5032263;28;46140;-66
2022/03/09 12:07:46;;;;;;;14.37;8.67;;;9.50;21.30;;;;;;5038188;28;46437;-65
2022/03/09 12:10:12;;;;;;;20.23;9.70;;;9.70;21.40;;;;;;5031978;28;46548;-64
2022/03/09 12:13:15;;;;;;;17.93;10.40;;;9.80;21.70;;;;;;5033878;28;46379;-65
2022/03/09 12:16:02;;;;;;;20.03;9.10;;;9.80;20.90;;;;;;5030839;28;46413;-65
2022/03/09 12:18:39;;;;;;;16.80;9.37;;;9.90;21.00;;;;;;5027771;28;46614;-65
2022/03/09 12:21:06;;;;;;;15.93;9.23;;;9.90;20.50;;;;;;5028270;28;46465;-64
2022/03/09 12:23:33;;;;;;;16.57;9.80;;;9.80;20.90;;;;;;5038859;28;46348;-65
2022/03/09 12:26:01;;;;;;;15.63;9.63;;;9.80;20.60;;;;;;5024111;28;46363;-65
2022/03/09 12:28:34;;;;;;;17.47;9.70;;;9.80;20.30;;;;;;5025412;28;46288;-65
2022/03/09 12:31:20;;;;;;;15.97;8.83;;;9.80;20.50;;;;;;5031526;28;46330;-66
2022/03/09 12:33:51;;;;;;;20.80;9.87;;;9.90;20.30;;;;;;5036056;28;46381;-66
2022/03/09 12:36:21;;;;;;;20.50;9.57;;;10.00;18.80;;;;;;5032043;28;46581;-65
2022/03/09 12:38:55;;;;;;;20.50;9.90;;;10.00;18.30;;;;;;5033912;28;46550;-66
2022/03/09 12:41:30;;;;;;;17.43;9.20;;;10.00;18.10;;;;;;5030589;28;46358;-65